VSA weather

Carlos Rovirosa PĂ©rez International Airport
Villahermosa, Tabasco, Mexico

Public forecast

Using degrees Celsius for public forecast. Weather courtesy of forecast.io.

METAR (pilot weather report)

Retrieved 2017/12/15 16:41 UTC (0 seconds ago):

MMVA 151641Z 26008KT 5SM SKC 24/18 A3002 RMK HZY ISOL CUFRA

TAF (pilot weather forecast)

Forecast is more than 6 hours old.

Retrieved 2017/12/15 06:12 UTC (10 hours ago):

TAF MMVA 150507Z 1506/1606 06005KT 6SM HZ SKC FM151000 12005KT 5SM HZ SCT015 TEMPO 1511/1514 2SM BR SCT005 BKN010 FM151600 13010KT 6SM HZ SCT020 SCT200 FM160300 33010KT 6SM HZ BKN015 BKN070 TEMPO 1603/1606 4SM RA BKN010